createdAt,value
2019-04-10T00:00:39.224Z,93796.78
2019-04-10T00:03:22.264Z,93800.39
2019-04-10T00:05:40.933Z,93801.12
2019-04-10T00:08:10.670Z,93806.15
2019-04-10T00:10:40.310Z,93810.58
2019-04-10T00:13:10.071Z,93809.33
2019-04-10T00:15:40.263Z,93796.66
2019-04-10T00:18:09.870Z,93800.43
2019-04-10T00:20:39.343Z,93797.52
2019-04-10T00:23:08.985Z,93799.53
2019-04-10T00:25:39.211Z,93798.61
2019-04-10T00:28:09.503Z,93801.45
2019-04-10T00:30:39.083Z,93802.38
2019-04-10T00:33:08.580Z,93795.76
2019-04-10T00:35:39.340Z,93792.27
2019-04-10T00:38:09.295Z,93787.21
2019-04-10T00:40:39.496Z,93790.16
2019-04-10T00:43:09.036Z,93783.94
2019-04-10T00:45:39.508Z,93785.20
2019-04-10T00:48:09.978Z,93786.12
2019-04-10T00:50:39.502Z,93791.38
2019-04-10T00:53:08.998Z,93796.37
2019-04-10T00:55:39.703Z,93793.16
2019-04-10T00:58:09.980Z,93789.52
2019-04-10T01:00:39.649Z,93789.87
2019-04-10T01:03:09.386Z,93792.44
2019-04-10T01:05:39.643Z,93787.27
2019-04-10T01:08:09.259Z,93789.02
2019-04-10T01:10:38.853Z,93795.01
2019-04-10T01:13:08.433Z,93787.59
2019-04-10T01:15:38.606Z,93788.23
2019-04-10T01:18:08.185Z,93785.95
2019-04-10T01:20:37.826Z,93777.52
2019-04-10T01:23:07.903Z,93780.58
2019-04-10T01:25:37.526Z,93773.79
2019-04-10T01:28:07.018Z,93769.80
2019-04-10T01:30:36.511Z,93769.47
2019-04-10T01:33:06.268Z,93773.05
2019-04-10T01:35:35.768Z,93776.23
2019-04-10T01:38:06.438Z,93772.20
2019-04-10T01:40:37.231Z,93773.84
2019-04-10T01:43:12.945Z,93778.70
2019-04-10T01:45:38.070Z,93774.32
2019-04-10T01:48:07.930Z,93778.06
2019-04-10T01:50:37.520Z,93773.50
2019-04-10T01:53:07.036Z,93778.45
2019-04-10T01:55:36.519Z,93777.72
2019-04-10T01:58:08.961Z,93775.91
2019-04-10T02:00:40.311Z,93771.80
2019-04-10T02:03:09.860Z,93768.84
2019-04-10T02:05:39.368Z,93762.92
2019-04-10T02:08:12.778Z,93773.21
2019-04-10T02:10:40.572Z,93772.19
2019-04-10T02:13:10.100Z,93767.08
2019-04-10T02:15:39.611Z,93772.19
2019-04-10T02:18:09.052Z,93766.66
2019-04-10T02:20:38.915Z,93768.89
2019-04-10T02:23:08.609Z,93762.89
2019-04-10T02:25:39.085Z,93765.39
2019-04-10T02:28:09.010Z,93759.72
2019-04-10T02:30:39.594Z,93762.48
2019-04-10T02:33:10.707Z,93762.02
2019-04-10T02:35:40.338Z,93768.13
2019-04-10T02:38:27.464Z,93755.43
2019-04-10T02:40:41.663Z,93755.97
2019-04-10T02:43:12.519Z,93755.68
2019-04-10T02:45:44.479Z,93751.37
2019-04-10T02:48:15.030Z,93758.70
2019-04-10T02:50:44.997Z,93763.19
2019-04-10T02:53:15.330Z,93768.09
2019-04-10T02:55:45.061Z,93761.91
2019-04-10T02:58:15.931Z,93764.05
2019-04-10T03:00:46.362Z,93756.38
2019-04-10T03:03:16.077Z,93758.48
2019-04-10T03:05:46.669Z,93767.84
2019-04-10T03:08:17.363Z,93765.80
2019-04-10T03:10:51.777Z,93770.78
2019-04-10T03:13:19.679Z,93770.31
2019-04-10T03:15:49.822Z,93762.12
2019-04-10T03:18:20.890Z,93766.16
2019-04-10T03:20:50.954Z,93764.86
2019-04-10T03:23:21.103Z,93763.39
2019-04-10T03:25:50.972Z,93765.25
2019-04-10T03:28:20.616Z,93765.33
2019-04-10T03:30:50.136Z,93769.03
2019-04-10T03:33:45.450Z,93760.15
2019-04-10T03:36:13.552Z,93764.20
2019-04-10T03:38:55.327Z,93758.19
2019-04-10T03:41:14.384Z,93765.83
2019-04-10T03:43:43.928Z,93767.72
2019-04-10T03:46:13.407Z,93776.17
2019-04-10T03:48:42.864Z,93786.55
2019-04-10T03:51:12.445Z,93794.27
2019-04-10T03:53:42.538Z,93789.61
2019-04-10T03:56:12.066Z,93791.36
2019-04-10T03:58:41.882Z,93800.67
2019-04-10T04:01:11.681Z,93799.11
2019-04-10T04:03:41.210Z,93798.97
2019-04-10T04:06:11.156Z,93810.94
2019-04-10T04:08:40.791Z,93808.57
2019-04-10T04:11:10.320Z,93813.64
2019-04-10T04:13:40.183Z,93813.82
2019-04-10T04:16:10.817Z,93814.25
2019-04-10T04:18:41.309Z,93817.02
2019-04-10T04:21:11.773Z,93823.17
2019-04-10T04:23:41.362Z,93821.39
2019-04-10T04:26:10.884Z,93825.80
2019-04-10T04:28:40.476Z,93823.90
2019-04-10T04:31:10.060Z,93827.43
2019-04-10T04:33:39.588Z,93824.52
2019-04-10T04:36:10.243Z,93827.58
2019-04-10T04:38:41.007Z,93823.64
2019-04-10T04:41:11.114Z,93822.81
2019-04-10T04:43:42.411Z,93823.25
2019-04-10T04:46:12.098Z,93821.94
2019-04-10T04:48:41.566Z,93831.11
2019-04-10T04:51:11.286Z,93834.02
2019-04-10T04:53:41.817Z,93834.69
2019-04-10T04:56:11.571Z,93838.58
2019-04-10T04:58:41.103Z,93837.52
2019-04-10T05:01:10.624Z,93836.34
2019-04-10T05:03:40.189Z,93836.63
2019-04-10T05:06:09.742Z,93846.17
2019-04-10T05:08:39.925Z,93844.23
2019-04-10T05:11:09.824Z,93850.98
2019-04-10T05:13:40.269Z,93852.05
2019-04-10T05:16:10.179Z,93856.46
2019-04-10T05:18:39.754Z,93857.30
2019-04-10T05:21:09.261Z,93861.81
2019-04-10T05:23:38.781Z,93863.00
2019-04-10T05:26:08.322Z,93862.45
2019-04-10T05:28:38.138Z,93860.10
2019-04-10T05:31:08.715Z,93868.33
2019-04-10T05:33:38.695Z,93864.55
2019-04-10T05:36:08.925Z,93864.33
2019-04-10T05:38:38.472Z,93867.76
2019-04-10T05:41:09.079Z,93869.58
2019-04-10T05:43:38.679Z,93869.36
2019-04-10T05:46:08.221Z,93875.18
2019-04-10T05:48:37.786Z,93874.22
2019-04-10T05:51:08.757Z,93881.45
2019-04-10T05:53:38.820Z,93873.86
2019-04-10T05:56:08.539Z,93875.27
2019-04-10T05:58:38.682Z,93876.59
2019-04-10T06:01:09.525Z,93874.67
2019-04-10T06:03:39.063Z,93869.36
2019-04-10T06:06:08.601Z,93864.31
2019-04-10T06:08:38.054Z,93865.92
2019-04-10T06:11:08.615Z,93868.16
2019-04-10T06:13:38.800Z,93867.92
2019-04-10T06:16:09.669Z,93869.56
2019-04-10T06:18:39.608Z,93876.59
2019-04-10T06:21:10.410Z,93876.88
2019-04-10T06:23:40.042Z,93871.76
2019-04-10T06:26:10.227Z,93876.14
2019-04-10T06:28:40.136Z,93883.86
2019-04-10T06:31:09.704Z,93883.89
2019-04-10T06:33:40.300Z,93887.55
2019-04-10T06:36:09.800Z,93894.95
2019-04-10T06:38:39.334Z,93898.53
2019-04-10T06:41:08.843Z,93901.55
2019-04-10T06:43:39.246Z,93895.61
2019-04-10T06:46:08.779Z,93901.95
2019-04-10T06:48:38.471Z,93904.17
2019-04-10T06:51:08.246Z,93904.75
2019-04-10T06:53:37.789Z,93898.92
2019-04-10T06:56:07.335Z,93899.91
2019-04-10T06:58:36.836Z,93895.75
2019-04-10T07:01:06.445Z,93895.45
2019-04-10T07:03:50.757Z,93899.97
2019-04-10T07:06:14.381Z,93899.39
2019-04-10T07:08:38.653Z,93910.77
2019-04-10T07:11:10.582Z,93911.28
2019-04-10T07:13:40.479Z,93908.97
2019-04-10T07:16:11.305Z,93909.17
2019-04-10T07:18:45.847Z,93911.95
2019-04-10T07:21:13.254Z,93915.89
2019-04-10T07:23:42.905Z,93917.20
2019-04-10T07:26:18.487Z,93917.14
2019-04-10T07:28:45.706Z,93916.49
2019-04-10T07:31:14.864Z,93917.64
2019-04-10T07:33:45.148Z,93913.94
2019-04-10T07:36:16.103Z,93921.59
2019-04-10T07:38:46.783Z,93927.24
2019-04-10T07:41:21.229Z,93924.55
2019-04-10T07:43:53.556Z,93928.91
2019-04-10T07:46:18.793Z,93925.89
2019-04-10T07:48:48.322Z,93922.44
2019-04-10T07:51:18.994Z,93928.27
2019-04-10T07:53:49.176Z,93927.78
2019-04-10T07:56:20.765Z,93925.14
2019-04-10T07:58:49.993Z,93929.72
2019-04-10T08:01:19.492Z,93933.50
2019-04-10T08:03:52.151Z,93929.91
2019-04-10T08:06:20.292Z,93930.28
2019-04-10T08:08:49.793Z,93929.78
2019-04-10T08:11:19.778Z,93928.47
2019-04-10T08:13:49.311Z,93929.37
2019-04-10T08:16:19.025Z,93923.72
2019-04-10T08:18:48.557Z,93923.19
2019-04-10T08:21:18.056Z,93919.06
2019-04-10T08:23:48.541Z,93920.97
2019-04-10T08:26:18.364Z,93917.98
2019-04-10T08:28:47.929Z,93920.00
2019-04-10T08:31:17.443Z,93925.65
2019-04-10T08:33:46.961Z,93931.64
2019-04-10T08:36:16.506Z,93936.79
2019-04-10T08:38:46.682Z,93945.40
2019-04-10T08:41:17.160Z,93944.95
2019-04-10T08:43:46.807Z,93948.29
2019-04-10T08:46:16.377Z,93958.55
2019-04-10T08:48:45.879Z,93951.16
2019-04-10T08:51:15.399Z,93957.44
2019-04-10T08:53:44.991Z,93949.95
2019-04-10T08:56:14.523Z,93945.28
2019-04-10T08:58:44.023Z,93943.63
2019-04-10T09:01:13.540Z,93947.73
2019-04-10T09:03:43.397Z,93956.07
2019-04-10T09:06:13.367Z,93960.27
2019-04-10T09:08:43.606Z,93959.58
2019-04-10T09:11:13.174Z,93964.13
2019-04-10T09:13:42.693Z,93955.80
2019-04-10T09:16:12.300Z,93953.53
2019-04-10T09:18:41.799Z,93953.95
2019-04-10T09:21:11.306Z,93952.56
2019-04-10T09:23:47.365Z,93945.85
2019-04-10T09:26:12.012Z,93945.77
2019-04-10T09:28:42.433Z,93947.97
2019-04-10T09:31:11.994Z,93944.70
2019-04-10T09:33:41.488Z,93942.10
2019-04-10T09:36:11.269Z,93943.17
2019-04-10T09:38:41.055Z,93943.98
2019-04-10T09:41:10.615Z,93940.16
2019-04-10T09:43:40.158Z,93932.38
2019-04-10T09:46:10.117Z,93929.50
2019-04-10T09:48:40.688Z,93929.00
2019-04-10T09:51:10.222Z,93923.92
2019-04-10T09:53:39.736Z,93925.79
2019-04-10T09:56:09.559Z,93929.56
2019-04-10T09:58:39.126Z,93924.59
2019-04-10T10:01:14.718Z,93926.30
2019-04-10T10:03:44.588Z,93923.37
2019-04-10T10:06:25.320Z,93916.67
2019-04-10T10:08:45.433Z,93927.34
2019-04-10T10:11:14.954Z,93922.22
2019-04-10T10:13:44.453Z,93920.34
2019-04-10T10:16:14.762Z,93917.38
2019-04-10T10:18:44.396Z,93920.29
2019-04-10T10:21:14.427Z,93922.70
2019-04-10T10:23:44.677Z,93918.14
2019-04-10T10:26:14.191Z,93916.67
2019-04-10T10:28:43.695Z,93914.67
2019-04-10T10:31:13.722Z,93912.35
2019-04-10T10:33:43.286Z,93910.33
2019-04-10T10:36:13.701Z,93906.13
2019-04-10T10:38:43.465Z,93902.11
2019-04-10T10:41:13.087Z,93902.13
2019-04-10T10:43:42.671Z,93899.23
2019-04-10T10:46:13.377Z,93897.88
2019-04-10T10:48:44.097Z,93901.16
2019-04-10T10:51:14.670Z,93901.50
2019-04-10T10:53:44.507Z,93904.77
2019-04-10T10:56:14.095Z,93912.25
2019-04-10T10:58:43.948Z,93909.62
2019-04-10T11:01:13.725Z,93917.25
2019-04-10T11:03:44.356Z,93917.49
2019-04-10T11:06:14.932Z,93916.48
2019-04-10T11:08:46.017Z,93907.53
2019-04-10T11:11:16.997Z,93900.66
2019-04-10T11:13:46.974Z,93907.81
2019-04-10T11:16:17.086Z,93913.42
2019-04-10T11:18:46.944Z,93910.49
2019-04-10T11:21:20.687Z,93908.63
2019-04-10T11:23:50.886Z,93904.92
2019-04-10T11:26:23.993Z,93906.77
2019-04-10T11:28:53.057Z,93899.36
2019-04-10T11:31:23.761Z,93901.47
2019-04-10T11:33:56.403Z,93897.70
2019-04-10T11:36:25.993Z,93895.58
2019-04-10T11:39:05.001Z,93896.84
2019-04-10T11:41:29.499Z,93905.48
2019-04-10T11:43:58.254Z,93914.17
2019-04-10T11:46:31.073Z,93908.10
2019-04-10T11:49:00.771Z,93903.09
2019-04-10T11:51:32.351Z,93900.82
2019-04-10T11:54:04.474Z,93893.97
2019-04-10T11:56:34.312Z,93901.39
2019-04-10T11:59:07.022Z,93896.85
2019-04-10T12:01:36.836Z,93895.00
2019-04-10T12:04:09.807Z,93897.98
2019-04-10T12:06:40.339Z,93892.69
2019-04-10T12:09:57.137Z,93900.09
2019-04-10T12:11:48.859Z,93894.02
2019-04-10T12:14:19.343Z,93899.60
2019-04-10T12:16:49.463Z,93898.00
2019-04-10T12:19:19.348Z,93899.31
2019-04-10T12:21:48.968Z,93891.09
2019-04-10T12:24:18.491Z,93887.70
2019-04-10T12:26:48.025Z,93882.39
2019-04-10T12:29:18.366Z,93878.69
2019-04-10T12:31:48.200Z,93877.31
2019-04-10T12:34:18.231Z,93878.63
2019-04-10T12:36:48.940Z,93885.46
2019-04-10T12:39:18.593Z,93880.17
2019-04-10T12:41:48.296Z,93880.05
2019-04-10T12:44:17.871Z,93880.72
2019-04-10T12:46:47.424Z,93878.55
2019-04-10T12:49:17.174Z,93888.82
2019-04-10T12:51:46.797Z,93889.45
2019-04-10T12:54:17.201Z,93891.83
2019-04-10T12:56:46.934Z,93891.05
2019-04-10T12:59:17.343Z,93888.17
2019-04-10T13:01:47.103Z,93889.09
2019-04-10T13:04:16.548Z,93885.69
2019-04-10T13:06:46.420Z,93884.47
2019-04-10T13:09:16.118Z,93884.70
2019-04-10T13:11:46.816Z,93878.59
2019-04-10T13:14:16.887Z,93883.38
2019-04-10T13:16:46.512Z,93879.37
2019-04-10T13:19:16.614Z,93877.88
2019-04-10T13:21:46.709Z,93881.45
2019-04-10T13:24:17.311Z,93881.93
2019-04-10T13:26:46.911Z,93877.39
2019-04-10T13:29:16.531Z,93891.90
2019-04-10T13:31:46.698Z,93888.69
2019-04-10T13:34:18.166Z,93885.89
2019-04-10T13:36:48.091Z,93885.87
2019-04-10T13:39:18.989Z,93886.14
2019-04-10T13:41:49.077Z,93895.72
2019-04-10T13:44:18.596Z,93882.57
2019-04-10T13:46:49.062Z,93883.39
2019-04-10T13:49:19.916Z,93886.06
2019-04-10T13:51:50.233Z,93884.62
2019-04-10T13:54:20.733Z,93879.34
2019-04-10T13:56:50.410Z,93887.56
2019-04-10T13:59:20.702Z,93884.89
2019-04-10T14:01:50.308Z,93887.22
2019-04-10T14:04:19.989Z,93890.36
2019-04-10T14:06:49.673Z,93894.24
2019-04-10T14:09:34.957Z,93896.83
2019-04-10T14:11:51.380Z,93887.16
2019-04-10T14:14:21.373Z,93891.00
2019-04-10T14:16:51.012Z,93894.55
2019-04-10T14:19:21.416Z,93896.84
2019-04-10T14:21:51.320Z,93898.16
2019-04-10T14:24:21.970Z,93900.77
2019-04-10T14:27:00.171Z,93902.84
2019-04-10T14:29:30.175Z,93904.64
2019-04-10T14:32:02.818Z,93901.66
2019-04-10T14:34:32.532Z,93899.26
2019-04-10T14:37:03.002Z,93896.78
2019-04-10T14:39:33.561Z,93901.22
2019-04-10T14:42:04.385Z,93905.93
2019-04-10T14:44:34.837Z,93901.97
2019-04-10T14:47:06.522Z,93908.01
2019-04-10T14:49:36.138Z,93900.45
2019-04-10T14:52:05.669Z,93901.66
2019-04-10T14:54:35.931Z,93900.24
2019-04-10T14:57:06.505Z,93895.31
2019-04-10T14:59:36.289Z,93893.02
2019-04-10T15:02:08.489Z,93893.14
2019-04-10T15:04:38.077Z,93889.98
2019-04-10T15:07:08.047Z,93884.70
2019-04-10T15:09:37.826Z,93882.86
2019-04-10T15:12:09.908Z,93881.78
2019-04-10T15:14:39.575Z,93885.25
2019-04-10T15:17:09.587Z,93880.80
2019-04-10T15:19:40.548Z,93874.72
2019-04-10T15:22:10.289Z,93876.59
2019-04-10T15:24:41.103Z,93878.95
2019-04-10T15:27:11.151Z,93878.25
2019-04-10T15:29:40.918Z,93882.05
2019-04-10T15:32:10.718Z,93879.95
2019-04-10T15:34:40.409Z,93890.06
2019-04-10T15:37:11.015Z,93884.99
2019-04-10T15:39:42.959Z,93891.02
2019-04-10T15:42:12.239Z,93888.91
2019-04-10T15:44:42.791Z,93884.47
2019-04-10T15:47:19.171Z,93873.93
2019-04-10T15:49:44.940Z,93878.64
2019-04-10T15:52:14.986Z,93875.00
2019-04-10T15:54:45.867Z,93879.48
2019-04-10T15:57:16.387Z,93881.84
2019-04-10T15:59:46.847Z,93886.79
2019-04-10T16:02:16.495Z,93883.38
2019-04-10T16:04:46.030Z,93894.16
2019-04-10T16:07:16.152Z,93894.47
2019-04-10T16:09:50.713Z,93893.70
2019-04-10T16:12:19.070Z,93895.57
2019-04-10T16:14:48.710Z,93895.55
2019-04-10T16:17:39.999Z,93898.42
2019-04-10T16:20:34.554Z,93899.23
2019-04-10T16:23:13.969Z,93902.20
2019-04-10T16:25:47.295Z,93898.67
2019-04-10T16:28:17.907Z,93894.34
2019-04-10T16:30:48.646Z,93892.69
2019-04-10T16:33:18.869Z,93896.41
2019-04-10T16:35:48.543Z,93894.01
2019-04-10T16:38:18.411Z,93894.01
2019-04-10T16:40:48.152Z,93893.45
2019-04-10T16:43:17.712Z,93892.13
2019-04-10T16:45:49.110Z,93894.01
2019-04-10T16:48:18.933Z,93896.86
2019-04-10T16:50:49.731Z,93894.68
2019-04-10T16:53:20.131Z,93895.45
2019-04-10T16:55:49.725Z,93898.02
2019-04-10T16:58:20.037Z,93892.70
2019-04-10T17:00:50.031Z,93902.53
2019-04-10T17:03:20.445Z,93898.85
2019-04-10T17:05:50.292Z,93908.02
2019-04-10T17:08:19.999Z,93913.99
2019-04-10T17:10:50.567Z,93922.59
2019-04-10T17:13:20.333Z,93924.41
2019-04-10T17:15:50.260Z,93930.44
2019-04-10T17:18:21.319Z,93926.73
2019-04-10T17:20:51.038Z,93926.73
2019-04-10T17:23:20.669Z,93927.20
2019-04-10T17:25:50.757Z,93921.84
2019-04-10T17:28:22.103Z,93931.31
2019-04-10T17:30:51.955Z,93925.45
2019-04-10T17:33:21.711Z,93928.88
2019-04-10T17:35:51.798Z,93934.39
2019-04-10T17:38:22.619Z,93934.06
2019-04-10T17:40:55.548Z,93933.73
2019-04-10T17:43:23.701Z,93942.36
2019-04-10T17:45:53.304Z,93948.63
2019-04-10T17:48:23.175Z,93949.86
2019-04-10T17:50:55.370Z,93949.58
2019-04-10T17:53:27.274Z,93954.07
2019-04-10T17:56:00.059Z,93961.25
2019-04-10T17:58:31.653Z,93968.21
2019-04-10T18:01:05.251Z,93972.22
2019-04-10T18:03:46.113Z,93979.37
2019-04-10T18:06:08.935Z,93979.61
2019-04-10T18:08:38.904Z,93979.85
2019-04-10T18:11:08.451Z,93976.98
2019-04-10T18:13:38.516Z,93979.81
2019-04-10T18:16:08.523Z,93986.06
2019-04-10T18:18:38.280Z,93987.15
2019-04-10T18:21:08.630Z,93993.88
2019-04-10T18:23:39.759Z,93992.45
2019-04-10T18:26:09.406Z,94002.44
2019-04-10T18:28:38.877Z,94005.52
2019-04-10T18:31:08.407Z,94000.72
2019-04-10T18:33:38.468Z,94008.67
2019-04-10T18:36:08.838Z,94009.66
2019-04-10T18:38:38.969Z,94012.00
2019-04-10T18:41:09.740Z,94021.17
2019-04-10T18:43:40.333Z,94014.65
2019-04-10T18:46:13.405Z,94015.09
2019-04-10T18:48:43.904Z,94020.00
2019-04-10T18:51:12.592Z,94027.57
2019-04-10T18:53:42.834Z,94026.59
2019-04-10T18:56:13.616Z,94032.06
2019-04-10T18:58:58.399Z,94030.88
2019-04-10T19:01:51.484Z,94033.83
2019-04-10T19:04:49.774Z,94039.23
2019-04-10T19:07:20.810Z,94040.70
2019-04-10T19:09:50.753Z,94034.30
2019-04-10T19:12:20.893Z,94036.16
2019-04-10T19:14:51.017Z,94035.66
2019-04-10T19:17:21.096Z,94032.70
2019-04-10T19:19:50.891Z,94039.41
2019-04-10T19:22:21.005Z,94041.14
2019-04-10T19:24:50.724Z,94037.48
2019-04-10T19:27:20.709Z,94041.72
2019-04-10T19:29:50.766Z,94033.25
2019-04-10T19:32:24.759Z,94038.22
2019-04-10T19:34:54.819Z,94042.91
2019-04-10T19:37:24.977Z,94036.75
2019-04-10T19:39:54.836Z,94032.68
2019-04-10T19:42:24.998Z,94030.63
2019-04-10T19:44:55.745Z,94020.36
2019-04-10T19:47:26.311Z,94031.53
2019-04-10T19:49:57.127Z,94032.89
2019-04-10T19:52:27.072Z,94034.03
2019-04-10T19:54:57.574Z,94031.41
2019-04-10T19:57:27.351Z,94036.33
2019-04-10T19:59:57.858Z,94033.86
2019-04-10T20:02:27.506Z,94033.03
2019-04-10T20:04:57.081Z,94031.38
2019-04-10T20:07:27.087Z,94024.26
2019-04-10T20:09:56.950Z,94012.81
2019-04-10T20:12:26.787Z,94010.84
2019-04-10T20:14:57.308Z,94000.64
2019-04-10T20:17:27.937Z,93998.02
2019-04-10T20:19:58.811Z,94001.25
2019-04-10T20:22:29.383Z,94000.84
2019-04-10T20:24:59.789Z,94005.50
2019-04-10T20:27:29.435Z,93999.14
2019-04-10T20:29:59.404Z,93997.68
2019-04-10T20:32:30.062Z,94006.91
2019-04-10T20:35:00.072Z,94001.30
2019-04-10T20:37:29.650Z,94001.13
2019-04-10T20:39:59.297Z,93997.66
2019-04-10T20:42:29.911Z,93998.61
2019-04-10T20:44:59.530Z,93998.65
2019-04-10T20:47:29.040Z,93997.19
2019-04-10T20:49:59.581Z,94002.29
2019-04-10T20:52:29.129Z,94002.00
2019-04-10T20:54:59.327Z,94002.73
2019-04-10T20:57:29.732Z,94001.20
2019-04-10T20:59:59.565Z,94004.15
2019-04-10T21:02:29.226Z,94003.42
2019-04-10T21:05:04.951Z,94003.13
2019-04-10T21:07:29.959Z,94003.23
2019-04-10T21:10:00.706Z,94001.52
2019-04-10T21:12:30.463Z,94000.25
2019-04-10T21:14:59.983Z,93997.95
2019-04-10T21:17:29.950Z,93996.81
2019-04-10T21:20:00.067Z,93992.88
2019-04-10T21:22:30.733Z,93993.69
2019-04-10T21:25:00.624Z,93998.13
2019-04-10T21:27:30.166Z,94002.31
2019-04-10T21:30:33.966Z,94004.45
2019-04-10T21:33:25.588Z,94003.39
2019-04-10T21:35:55.128Z,94000.26
2019-04-10T21:38:24.637Z,93999.04
2019-04-10T21:40:55.207Z,93994.73
2019-04-10T21:43:24.799Z,94001.82
2019-04-10T21:45:55.393Z,93993.60
2019-04-10T21:48:24.911Z,93991.73
2019-04-10T21:50:54.413Z,93992.80
2019-04-10T21:53:24.245Z,93996.52
2019-04-10T21:55:53.824Z,93994.50
2019-04-10T21:58:24.098Z,93995.95
2019-04-10T22:01:05.495Z,93995.23
2019-04-10T22:03:35.850Z,93996.63
2019-04-10T22:06:26.043Z,93989.48
2019-04-10T22:09:18.731Z,93988.89
2019-04-10T22:11:51.755Z,93990.71
2019-04-10T22:14:21.507Z,93990.44
2019-04-10T22:16:51.144Z,93987.57
2019-04-10T22:19:20.997Z,93988.32
2019-04-10T22:21:50.483Z,93988.66
2019-04-10T22:24:20.047Z,93990.78
2019-04-10T22:26:50.143Z,93996.47
2019-04-10T22:29:19.640Z,93993.64
2019-04-10T22:31:49.289Z,93996.98
2019-04-10T22:34:19.158Z,93998.88
2019-04-10T22:36:49.331Z,93996.85
2019-04-10T22:39:18.962Z,94002.48
2019-04-10T22:41:48.687Z,94005.70
2019-04-10T22:44:18.161Z,94001.48
2019-04-10T22:46:47.648Z,94002.23
2019-04-10T22:49:18.076Z,94009.51
2019-04-10T22:51:47.710Z,94009.64
2019-04-10T22:54:17.915Z,94008.33
2019-04-10T22:56:47.756Z,94007.09
2019-04-10T22:59:17.860Z,94006.17
2019-04-10T23:01:59.326Z,94013.44
2019-04-10T23:04:18.582Z,94004.61
2019-04-10T23:06:49.209Z,94006.22
2019-04-10T23:09:20.140Z,94006.20
2019-04-10T23:11:49.868Z,94005.69
2019-04-10T23:14:20.663Z,94003.63
2019-04-10T23:16:50.507Z,94006.66
2019-04-10T23:19:20.365Z,94006.54
2019-04-10T23:21:49.939Z,93994.58
2019-04-10T23:24:19.426Z,94000.55
2019-04-10T23:26:49.301Z,93993.33
2019-04-10T23:29:20.107Z,93997.11
2019-04-10T23:31:50.021Z,93994.11
2019-04-10T23:34:20.836Z,93993.61
2019-04-10T23:36:50.811Z,93998.66
2019-04-10T23:39:20.373Z,93999.41
2019-04-10T23:41:52.076Z,93998.96
2019-04-10T23:44:21.126Z,94003.48
2019-04-10T23:46:51.663Z,93997.89
2019-04-10T23:49:21.491Z,93998.75
2019-04-10T23:51:51.655Z,93995.69
2019-04-10T23:54:21.473Z,93998.81
2019-04-10T23:56:51.124Z,93996.98
2019-04-10T23:59:20.642Z,93995.96
